createdAt,value
2023-01-12T00:02:16.780Z,12
2023-01-12T00:05:18.689Z,13.8
2023-01-12T00:08:20.620Z,9.7
2023-01-12T00:11:22.612Z,10.2
2023-01-12T00:14:24.561Z,9.5
2023-01-12T00:17:26.554Z,9.8
2023-01-12T00:20:28.481Z,10.2
2023-01-12T00:23:30.499Z,12.2
2023-01-12T00:26:32.413Z,10.7
2023-01-12T00:29:34.401Z,9.9
2023-01-12T00:32:36.362Z,17.5
2023-01-12T00:35:38.446Z,9.5
2023-01-12T00:38:40.283Z,10.9
2023-01-12T00:41:42.252Z,11.5
2023-01-12T00:44:44.203Z,10.8
2023-01-12T00:47:46.198Z,8.2
2023-01-12T00:50:48.135Z,10.1
2023-01-12T00:53:50.076Z,11
2023-01-12T00:56:52.067Z,13.5
2023-01-12T00:59:54.028Z,10.5
2023-01-12T01:02:55.995Z,8.6
2023-01-12T01:05:57.919Z,9.3
2023-01-12T01:08:59.889Z,7.5
2023-01-12T01:12:01.857Z,13
2023-01-12T01:15:03.797Z,10.2
2023-01-12T01:18:05.765Z,8.5
2023-01-12T01:21:07.778Z,15.3
2023-01-12T01:24:09.718Z,11.7
2023-01-12T01:27:11.674Z,12.2
2023-01-12T01:30:13.624Z,10.4
2023-01-12T01:33:15.613Z,9.5
2023-01-12T01:36:17.606Z,10.7
2023-01-12T01:39:19.573Z,10.2
2023-01-12T01:42:21.678Z,10.2
2023-01-12T01:45:23.470Z,11.1
2023-01-12T01:48:25.420Z,10.5
2023-01-12T01:51:27.388Z,10.9
2023-01-12T01:54:29.402Z,10.9
2023-01-12T01:57:31.371Z,12.3
2023-01-12T02:00:33.327Z,10.5
2023-01-12T02:03:36.814Z,11.2
2023-01-12T02:06:37.207Z,13.3
2023-01-12T02:09:39.168Z,14
2023-01-12T02:12:41.129Z,12.7
2023-01-12T02:15:43.157Z,14.8
2023-01-12T02:18:45.041Z,9.9
2023-01-12T02:21:47.043Z,8.9
2023-01-12T02:24:48.973Z,10.4
2023-01-12T02:27:50.961Z,8.7
2023-01-12T02:30:52.887Z,8.6
2023-01-12T02:33:54.877Z,9.9
2023-01-12T02:36:56.863Z,6.7
2023-01-12T02:39:58.776Z,7.6
2023-01-12T02:43:00.745Z,10.4
2023-01-12T02:46:02.696Z,9
2023-01-12T02:49:04.652Z,10.5
2023-01-12T02:52:06.615Z,7.9
2023-01-12T02:55:08.579Z,7.4
2023-01-12T02:58:10.535Z,6.7
2023-01-12T03:01:12.569Z,11.5
2023-01-12T03:04:14.488Z,8.9
2023-01-12T03:07:16.433Z,12.9
2023-01-12T03:10:18.417Z,12.2
2023-01-12T03:13:20.374Z,10.7
2023-01-12T03:16:22.355Z,8.5
2023-01-12T03:19:24.425Z,9.4
2023-01-12T03:22:26.269Z,8.4
2023-01-12T03:25:28.213Z,10.5
2023-01-12T03:28:30.209Z,10.2
2023-01-12T03:31:32.200Z,7.8
2023-01-12T03:34:34.083Z,13.1
2023-01-12T03:37:36.055Z,10.6
2023-01-12T03:40:38.002Z,8.9
2023-01-12T03:43:39.979Z,10.5
2023-01-12T03:46:42.012Z,11.1
2023-01-12T03:49:43.929Z,11.5
2023-01-12T03:52:45.857Z,10.1
2023-01-12T03:55:47.869Z,13.9
2023-01-12T03:58:49.827Z,11.3
2023-01-12T04:01:52.106Z,9.2
2023-01-12T04:04:53.747Z,10
2023-01-12T04:07:55.743Z,14.9
2023-01-12T04:10:57.700Z,12
2023-01-12T04:13:59.635Z,10.3
2023-01-12T04:17:01.592Z,12.5
2023-01-12T04:20:03.569Z,10.3
2023-01-12T04:23:05.510Z,8.9
2023-01-12T04:26:07.476Z,9.6
2023-01-12T04:29:09.442Z,9.4
2023-01-12T04:32:11.437Z,10.2
2023-01-12T04:35:13.379Z,11.8
2023-01-12T04:38:15.313Z,9.3
2023-01-12T04:41:17.318Z,9.4
2023-01-12T04:44:19.293Z,10.4
2023-01-12T04:47:21.255Z,6.6
2023-01-12T04:50:23.192Z,14.6
2023-01-12T04:53:25.219Z,8.3
2023-01-12T04:56:27.145Z,7.1
2023-01-12T04:59:29.122Z,7.6
2023-01-12T05:02:31.073Z,11.4
2023-01-12T05:05:33.045Z,12.4
2023-01-12T05:08:35.004Z,9.5
2023-01-12T05:11:36.931Z,10.3
2023-01-12T05:14:38.900Z,9.9
2023-01-12T05:17:40.848Z,10
2023-01-12T05:20:42.838Z,9.1
2023-01-12T05:23:44.771Z,11.4
2023-01-12T05:26:46.727Z,12.5
2023-01-12T05:29:48.695Z,8.5
2023-01-12T05:32:50.684Z,7.6
2023-01-12T05:35:52.637Z,11.6
2023-01-12T05:38:54.664Z,8.2
2023-01-12T05:41:56.596Z,13
2023-01-12T05:44:58.610Z,8.2
2023-01-12T05:48:00.550Z,9.8
2023-01-12T05:51:02.502Z,8.2
2023-01-12T05:54:04.468Z,12.5
2023-01-12T05:57:06.460Z,8.1
2023-01-12T06:00:08.384Z,10.8
2023-01-12T06:03:10.333Z,12.4
2023-01-12T06:06:12.272Z,10.6
2023-01-12T06:09:14.253Z,7.5
2023-01-12T06:12:16.231Z,6.5
2023-01-12T06:15:18.257Z,10.7
2023-01-12T06:18:20.187Z,10.6
2023-01-12T06:21:22.317Z,10.3
2023-01-12T06:24:24.121Z,8.7
2023-01-12T06:27:26.108Z,6.9
2023-01-12T06:30:28.102Z,8
2023-01-12T06:33:30.050Z,12.5
2023-01-12T06:36:32.036Z,6.4
2023-01-12T06:39:33.984Z,8.6
2023-01-12T06:42:35.915Z,7
2023-01-12T06:45:37.887Z,5.3
2023-01-12T06:48:39.840Z,10.1
2023-01-12T06:51:41.794Z,8.4
2023-01-12T06:54:43.773Z,9.7
2023-01-12T06:57:45.737Z,6.5
2023-01-12T07:00:47.697Z,12.3
2023-01-12T07:03:49.731Z,9.3
2023-01-12T07:06:51.723Z,8.7
2023-01-12T07:09:53.964Z,12
2023-01-12T07:12:55.876Z,9
2023-01-12T07:15:57.892Z,7.9
2023-01-12T07:18:59.771Z,12.3
2023-01-12T07:22:01.734Z,10.3
2023-01-12T07:25:03.689Z,10.2
2023-01-12T07:28:05.739Z,15.4
2023-01-12T07:31:07.664Z,12.2
2023-01-12T07:34:09.610Z,13
2023-01-12T07:37:11.538Z,12.1
2023-01-12T07:40:13.531Z,8.4
2023-01-12T07:43:15.473Z,9.3
2023-01-12T07:46:17.459Z,8.2
2023-01-12T07:49:19.377Z,7.5
2023-01-12T07:52:21.347Z,11.7
2023-01-12T07:55:23.350Z,8.2
2023-01-12T07:58:25.269Z,8.2
2023-01-12T08:01:27.406Z,5.5
2023-01-12T08:04:29.226Z,8.4
2023-01-12T08:07:31.167Z,6.4
2023-01-12T08:10:33.197Z,9.7
2023-01-12T08:13:35.180Z,8.2
2023-01-12T08:16:37.126Z,7
2023-01-12T08:19:39.095Z,9.9
2023-01-12T08:22:41.042Z,8.1
2023-01-12T08:25:43.022Z,11.4
2023-01-12T08:28:44.969Z,6.8
2023-01-12T08:31:46.950Z,5.7
2023-01-12T08:34:49.392Z,8.8
2023-01-12T08:37:50.852Z,6.5
2023-01-12T08:40:52.819Z,6.1
2023-01-12T08:43:54.815Z,5.7
2023-01-12T08:46:56.811Z,3.6
2023-01-12T08:49:58.699Z,6.4
2023-01-12T08:53:00.663Z,4
2023-01-12T08:56:02.658Z,3.1
2023-01-12T08:59:04.607Z,2.5
2023-01-12T09:02:06.698Z,3.1
2023-01-12T09:05:08.522Z,4.8
2023-01-12T09:08:10.458Z,6.1
2023-01-12T09:11:12.441Z,4.5
2023-01-12T09:14:14.410Z,1.7
2023-01-12T09:17:16.388Z,1.6
2023-01-12T09:20:18.346Z,3.7
2023-01-12T09:23:20.307Z,3.1
2023-01-12T09:26:22.352Z,2.7
2023-01-12T09:29:24.264Z,5.4
2023-01-12T09:32:36.057Z,2.5
2023-01-12T09:35:28.230Z,4.7
2023-01-12T09:38:30.195Z,2.5
2023-01-12T09:41:32.123Z,4.6
2023-01-12T09:44:34.114Z,3.2
2023-01-12T09:47:36.069Z,3.1
2023-01-12T09:50:38.012Z,2.7
2023-01-12T09:53:39.986Z,3.9
2023-01-12T09:56:41.941Z,3.5
2023-01-12T09:59:43.890Z,4.2
2023-01-12T10:02:45.978Z,5.7
2023-01-12T10:05:47.803Z,4.2
2023-01-12T10:08:49.766Z,2.2
2023-01-12T10:11:51.885Z,3.6
2023-01-12T10:14:53.748Z,5.8
2023-01-12T10:17:55.721Z,5.6
2023-01-12T10:20:57.642Z,3.2
2023-01-12T10:23:59.655Z,5.7
2023-01-12T10:27:01.614Z,3
2023-01-12T10:30:03.558Z,5.8
2023-01-12T10:33:05.491Z,5.7
2023-01-12T10:36:07.474Z,4.5
2023-01-12T10:39:09.439Z,5.5
2023-01-12T10:42:11.405Z,5.2
2023-01-12T10:45:13.594Z,6.2
2023-01-12T10:48:15.579Z,8.7
2023-01-12T10:51:17.525Z,4.1
2023-01-12T10:54:19.482Z,4.6
2023-01-12T10:57:21.456Z,6.9
2023-01-12T11:00:26.003Z,4.5
2023-01-12T11:03:25.414Z,3.7
2023-01-12T11:06:27.305Z,7
2023-01-12T11:09:29.295Z,5.3
2023-01-12T11:12:31.295Z,6.3
2023-01-12T11:15:33.223Z,6.2
2023-01-12T11:18:35.217Z,4.5
2023-01-12T11:21:37.142Z,4.2
2023-01-12T11:24:39.099Z,8.1
2023-01-12T11:27:41.134Z,5.8
2023-01-12T11:30:43.112Z,4.5
2023-01-12T11:33:45.078Z,5.9
2023-01-12T11:36:47.008Z,6.1
2023-01-12T11:39:48.920Z,6.2
2023-01-12T11:42:50.877Z,5
2023-01-12T11:45:52.887Z,6.7
2023-01-12T11:48:54.799Z,5
2023-01-12T11:51:56.773Z,6.7
2023-01-12T11:54:58.760Z,6.9
2023-01-12T11:58:00.715Z,5
2023-01-12T12:01:02.699Z,4.7
2023-01-12T12:04:04.673Z,6.4
2023-01-12T12:07:06.590Z,3.8
2023-01-12T12:10:08.563Z,3.3
2023-01-12T12:13:10.526Z,2.4
2023-01-12T12:16:12.540Z,3.2
2023-01-12T12:19:14.463Z,3.4
2023-01-12T12:22:16.428Z,1.5
2023-01-12T12:25:18.404Z,2.1
2023-01-12T12:28:20.352Z,2.2
2023-01-12T12:31:22.357Z,2.3
2023-01-12T12:34:24.311Z,3.6
2023-01-12T12:37:26.243Z,3.6
2023-01-12T12:40:28.192Z,1.9
2023-01-12T12:43:30.167Z,3
2023-01-12T12:46:32.139Z,2.2
2023-01-12T12:49:34.090Z,1.3
2023-01-12T12:52:36.045Z,0.9
2023-01-12T12:55:37.974Z,2.7
2023-01-12T12:58:39.919Z,1
2023-01-12T13:01:42.024Z,2.1
2023-01-12T13:04:43.862Z,0.7
2023-01-12T13:07:45.843Z,1.4
2023-01-12T13:10:47.776Z,1.7
2023-01-12T13:13:49.751Z,1.5
2023-01-12T13:16:51.702Z,1.6
2023-01-12T13:19:57.155Z,1.1
2023-01-12T13:22:55.629Z,1.7
2023-01-12T13:25:57.771Z,1.9
2023-01-12T13:28:59.568Z,2.2
2023-01-12T13:32:01.552Z,1.9
2023-01-12T13:35:03.491Z,1.1
2023-01-12T13:38:05.458Z,1
2023-01-12T13:41:07.457Z,0.7
2023-01-12T13:44:09.435Z,1.9
2023-01-12T13:47:11.383Z,1.7
2023-01-12T13:50:13.336Z,1.9
2023-01-12T13:53:15.300Z,1.4
2023-01-12T13:56:17.290Z,2.8
2023-01-12T13:59:19.254Z,4.6
2023-01-12T14:02:21.242Z,1.4
2023-01-12T14:05:23.138Z,2.5
2023-01-12T14:08:25.083Z,2.6
2023-01-12T14:11:27.088Z,1.3
2023-01-12T14:14:29.008Z,0.8
2023-01-12T14:17:31.005Z,1.9
2023-01-12T14:20:32.967Z,3.2
2023-01-12T14:23:34.937Z,1.9
2023-01-12T14:26:36.867Z,1.3
2023-01-12T14:29:38.834Z,0.8
2023-01-12T14:32:40.780Z,0.8
2023-01-12T14:35:42.829Z,1
2023-01-12T14:38:44.703Z,0.9
2023-01-12T14:41:46.743Z,1.4
2023-01-12T14:44:48.689Z,0.9
2023-01-12T14:47:50.706Z,1.5
2023-01-12T14:50:52.843Z,0.4
2023-01-12T14:53:54.597Z,0.4
2023-01-12T14:56:56.806Z,1.7
2023-01-12T14:59:58.615Z,0.5
2023-01-12T15:03:00.577Z,0.9
2023-01-12T15:06:02.537Z,1.7
2023-01-12T15:09:04.479Z,0.4
2023-01-12T15:12:06.531Z,1.8
2023-01-12T15:15:08.384Z,0.6
2023-01-12T15:18:10.348Z,1
2023-01-12T15:21:12.313Z,0.6
2023-01-12T15:24:14.318Z,0.3
2023-01-12T15:27:16.277Z,0.4
2023-01-12T15:30:18.210Z,0.5
2023-01-12T15:33:20.134Z,1.4
2023-01-12T15:36:22.098Z,1
2023-01-12T15:39:24.049Z,0.2
2023-01-12T15:42:26.019Z,0.9
2023-01-12T15:45:28.060Z,1.7
2023-01-12T15:48:29.976Z,0.2
2023-01-12T15:51:31.930Z,2.9
2023-01-12T15:54:33.854Z,0.9
2023-01-12T15:57:35.848Z,1.3
2023-01-12T16:00:37.771Z,0.5
2023-01-12T16:04:00.863Z,0.5
2023-01-12T16:06:41.692Z,0.9
2023-01-12T16:09:43.658Z,0.4
2023-01-12T16:12:45.621Z,0.5
2023-01-12T16:15:47.565Z,0.3
2023-01-12T16:18:49.540Z,0.7
2023-01-12T16:21:51.516Z,0.4
2023-01-12T16:24:53.499Z,1.4
2023-01-12T16:27:55.462Z,0.8
2023-01-12T16:30:57.438Z,0.9
2023-01-12T16:33:59.404Z,0.7
2023-01-12T16:37:01.378Z,0.4
2023-01-12T16:40:03.375Z,1.7
2023-01-12T16:43:05.301Z,0.4
2023-01-12T16:46:07.261Z,1
2023-01-12T16:49:09.166Z,0.8
2023-01-12T16:52:11.137Z,0.4
2023-01-12T16:55:13.158Z,0.3
2023-01-12T16:58:15.047Z,0.8
2023-01-12T17:01:17.153Z,0.4
2023-01-12T17:04:19.028Z,1.1
2023-01-12T17:07:21.004Z,0.4
2023-01-12T17:10:23.018Z,0.6
2023-01-12T17:13:24.922Z,0.8
2023-01-12T17:16:26.890Z,1.6
2023-01-12T17:19:28.818Z,0.8
2023-01-12T17:22:30.876Z,1.3
2023-01-12T17:25:32.758Z,0.4
2023-01-12T17:28:34.737Z,0.9
2023-01-12T17:31:36.653Z,1.1
2023-01-12T17:34:38.892Z,1.1
2023-01-12T17:37:40.584Z,1.2
2023-01-12T17:40:44.641Z,0.7
2023-01-12T17:43:44.532Z,2.3
2023-01-12T17:46:46.522Z,1.1
2023-01-12T17:49:48.445Z,1
2023-01-12T17:52:50.423Z,0.6
2023-01-12T17:55:53.292Z,0.9
2023-01-12T17:58:54.354Z,0.3
2023-01-12T18:01:56.445Z,1
2023-01-12T18:04:58.301Z,0.6
2023-01-12T18:08:00.241Z,0.6
2023-01-12T18:11:02.269Z,0.7
2023-01-12T18:14:04.531Z,1
2023-01-12T18:17:06.461Z,0.6
2023-01-12T18:20:08.435Z,1.1
2023-01-12T18:23:13.272Z,1.4
2023-01-12T18:26:15.268Z,0.8
2023-01-12T18:29:17.197Z,1.5
2023-01-12T18:32:22.261Z,1.6
2023-01-12T18:35:24.233Z,1.4
2023-01-12T18:38:26.178Z,1.7
2023-01-12T18:41:28.287Z,2
2023-01-12T18:44:30.224Z,0.8
2023-01-12T18:47:32.230Z,1.7
2023-01-12T18:50:35.948Z,2.3
2023-01-12T18:53:36.171Z,0.9
2023-01-12T18:56:38.138Z,1.1
2023-01-12T18:59:41.866Z,1.2
2023-01-12T19:02:42.281Z,0.9
2023-01-12T19:05:44.242Z,1.6
2023-01-12T19:08:46.224Z,3
2023-01-12T19:11:48.120Z,1.3
2023-01-12T19:14:50.077Z,1.7
2023-01-12T19:17:52.041Z,1.3
2023-01-12T19:20:54.003Z,1.2
2023-01-12T19:23:56.017Z,1.6
2023-01-12T19:26:58.011Z,1.9
2023-01-12T19:29:59.974Z,1.8
2023-01-12T19:33:01.989Z,0.8
2023-01-12T19:36:03.968Z,1.9
2023-01-12T19:39:05.930Z,1.5
2023-01-12T19:42:07.883Z,2.1
2023-01-12T19:45:09.857Z,1
2023-01-12T19:48:11.786Z,1.7
2023-01-12T19:51:13.748Z,1.6
2023-01-12T19:54:15.729Z,1.1
2023-01-12T19:57:17.671Z,0.4
2023-01-12T20:00:19.688Z,1.1
2023-01-12T20:03:21.725Z,1.1
2023-01-12T20:06:23.604Z,2.4
2023-01-12T20:09:25.564Z,1.6
2023-01-12T20:12:27.527Z,1
2023-01-12T20:15:29.499Z,1.6
2023-01-12T20:18:31.482Z,1.7
2023-01-12T20:21:33.497Z,1.4
2023-01-12T20:24:35.419Z,1.4
2023-01-12T20:27:37.405Z,2.1
2023-01-12T20:30:39.327Z,1.4
2023-01-12T20:33:41.286Z,1.6
2023-01-12T20:36:43.260Z,0.7
2023-01-12T20:39:45.223Z,0.9
2023-01-12T20:42:47.355Z,1.4
2023-01-12T20:45:49.137Z,1.8
2023-01-12T20:48:51.169Z,0.9
2023-01-12T20:51:53.266Z,0.7
2023-01-12T20:54:55.061Z,3.6
2023-01-12T20:57:57.045Z,1.7
2023-01-12T21:00:59.061Z,1.2
2023-01-12T21:04:00.939Z,1.1
2023-01-12T21:07:02.914Z,1.4
2023-01-12T21:10:04.862Z,1.1
2023-01-12T21:13:06.829Z,1.7
2023-01-12T21:16:08.893Z,2.5
2023-01-12T21:19:10.765Z,1
2023-01-12T21:22:12.747Z,2
2023-01-12T21:25:14.727Z,1.7
2023-01-12T21:28:16.696Z,1.6
2023-01-12T21:31:18.661Z,4.4
2023-01-12T21:34:20.590Z,1.3
2023-01-12T21:37:22.595Z,1.9
2023-01-12T21:40:24.536Z,1.8
2023-01-12T21:43:26.540Z,2.1
2023-01-12T21:46:28.471Z,2.4
2023-01-12T21:49:30.444Z,3.2
2023-01-12T21:52:32.396Z,3.4
2023-01-12T21:55:34.393Z,2.9
2023-01-12T21:58:36.328Z,2.6
2023-01-12T22:01:38.364Z,2.4
2023-01-12T22:04:40.268Z,2
2023-01-12T22:07:42.203Z,1.1
2023-01-12T22:10:44.175Z,3.1
2023-01-12T22:13:46.126Z,1.9
2023-01-12T22:16:48.132Z,1.6
2023-01-12T22:19:50.051Z,3.7
2023-01-12T22:22:52.026Z,1.5
2023-01-12T22:25:53.962Z,2.6
2023-01-12T22:28:55.964Z,3.4
2023-01-12T22:31:57.957Z,1.6
2023-01-12T22:34:59.866Z,1.5
2023-01-12T22:38:01.803Z,0.9
2023-01-12T22:41:03.785Z,1.8
2023-01-12T22:44:05.779Z,1.8
2023-01-12T22:47:07.733Z,1.5
2023-01-12T22:50:09.709Z,1.1
2023-01-12T22:53:11.664Z,1.8
2023-01-12T22:56:13.641Z,2.7
2023-01-12T22:59:15.599Z,0.6
2023-01-12T23:02:17.610Z,1.6
2023-01-12T23:05:19.523Z,1.7
2023-01-12T23:08:21.502Z,2.2
2023-01-12T23:11:23.508Z,2.3
2023-01-12T23:14:25.420Z,2.2
2023-01-12T23:17:27.397Z,1
2023-01-12T23:20:29.313Z,1.1
2023-01-12T23:23:31.290Z,2.3
2023-01-12T23:26:33.253Z,0.9
2023-01-12T23:29:35.188Z,1.9
2023-01-12T23:32:37.164Z,1.9
2023-01-12T23:35:39.136Z,2
2023-01-12T23:38:41.069Z,2.7
2023-01-12T23:41:43.053Z,3.1
2023-01-12T23:44:45.035Z,1.7
2023-01-12T23:47:47.005Z,2.1
2023-01-12T23:50:48.980Z,2.1
2023-01-12T23:53:50.938Z,2
2023-01-12T23:56:52.907Z,1.6
2023-01-12T23:59:54.885Z,1.8
